Terminal Aerodrome Forecast
Issued by NWS

Home | Current Version | Previous Version | Text Only | Print | Product List | Glossary On
Versions: 1 2 3 4 5 6 7 8 9 10 11 12 13 14 15 16 17 18 19 20 21 22 23 24 25 26 27 28 29 30 31 32 33 34
000
FTUS46 KEKA 252128 AAA
TAFCEC
TAF AMD
KCEC 252128Z 2521/2618 29006KT P6SM VCSH BKN007 BKN015 OVC025
      TEMPO 2523/2603 31011KT 6SM -SHRA BR SCT007 BKN015 OVC025
     FM260300 33009KT 5SM BR OVC010
     FM260800 33007KT 6SM BR BKN025=

USA.gov is the U.S. government's official web portal to all federal, state and local government web resources and services.